Time;durP1;ratioP1;P1;durP2;ratioP2;P2;SDS_P1;SDS_P2;PMS_P1;PMS_P2;Temp;Humidity;BMP_temperature;BMP_pressure;BME280_temperature;BME280_humidity;BME280_pressure;Samples;Min_cycle;Max_cycle;Signal;HPM_P1;HPM_P2
2021/04/28 00:01:39;;;;;;;43.15;30.60;;;10.50;99.90;;;;;;5075980;28;20033;-72
2021/04/28 00:04:06;;;;;;;49.42;32.63;;;10.60;99.90;;;;;;5075841;28;20461;-71
2021/04/28 00:06:32;;;;;;;42.83;29.80;;;10.60;99.90;;;;;;5075812;28;20384;-71
2021/04/28 00:08:59;;;;;;;38.45;27.98;;;10.60;99.90;;;;;;5075869;28;20031;-71
2021/04/28 00:11:25;;;;;;;36.15;26.33;;;10.60;99.90;;;;;;5075805;28;20021;-72
2021/04/28 00:13:51;;;;;;;37.67;25.98;;;10.70;99.90;;;;;;5057886;28;20021;-72
2021/04/28 00:16:20;;;;;;;38.08;27.35;;;10.70;99.90;;;;;;5075675;28;20098;-72
2021/04/28 00:18:50;;;;;;;42.35;29.02;;;10.70;99.90;;;;;;5057652;28;20461;-72
2021/04/28 00:21:16;;;;;;;37.67;27.50;;;10.80;99.90;;;;;;5075751;28;20449;-71
2021/04/28 00:23:44;;;;;;;38.97;27.08;;;10.80;99.90;;;;;;5075881;28;20446;-71
2021/04/28 00:26:12;;;;;;;44.78;28.77;;;10.80;99.90;;;;;;5075201;28;20050;-72
2021/04/28 00:28:39;;;;;;;39.15;29.58;;;10.80;99.90;;;;;;5057500;28;20469;-72
2021/04/28 00:31:05;;;;;;;43.35;29.85;;;10.70;99.90;;;;;;5075214;28;20472;-71
2021/04/28 00:33:31;;;;;;;37.00;28.17;;;10.70;99.90;;;;;;5075479;28;20085;-73
2021/04/28 00:35:58;;;;;;;38.47;27.60;;;10.70;99.90;;;;;;5075409;28;20146;-71
2021/04/28 00:38:24;;;;;;;39.03;28.58;;;10.70;99.90;;;;;;5057476;28;20393;-71
2021/04/28 00:40:51;;;;;;;40.25;30.25;;;10.70;99.90;;;;;;5057225;28;20028;-71
2021/04/28 00:43:18;;;;;;;43.22;31.45;;;10.70;99.90;;;;;;5074271;28;20029;-71
2021/04/28 00:45:44;;;;;;;38.22;28.85;;;10.70;99.90;;;;;;5075188;28;20028;-72
2021/04/28 00:48:11;;;;;;;36.38;27.50;;;10.70;99.90;;;;;;5076013;28;20052;-72
2021/04/28 00:50:43;;;;;;;40.70;28.95;;;10.60;99.90;;;;;;5075455;28;20027;-71
2021/04/28 00:53:11;;;;;;;38.47;28.65;;;10.60;99.90;;;;;;5075395;28;20060;-71
2021/04/28 00:55:37;;;;;;;39.40;27.60;;;10.60;99.90;;;;;;5075090;28;20119;-72
2021/04/28 00:58:04;;;;;;;35.42;26.58;;;10.60;99.90;;;;;;5056932;28;20056;-71
2021/04/28 01:00:31;;;;;;;35.75;26.73;;;10.70;99.90;;;;;;5074974;28;20031;-71
2021/04/28 01:02:57;;;;;;;38.78;26.83;;;10.70;99.90;;;;;;5057086;28;20464;-71
2021/04/28 01:05:23;;;;;;;36.05;26.40;;;10.70;99.90;;;;;;5056776;28;20024;-71
2021/04/28 01:07:50;;;;;;;38.08;26.27;;;10.70;99.90;;;;;;5074953;28;20033;-71
2021/04/28 01:10:22;;;;;;;38.47;27.50;;;10.80;99.90;;;;;;5074747;28;20036;-72
2021/04/28 01:12:49;;;;;;;34.90;26.08;;;10.80;99.90;;;;;;5074672;28;20024;-73
2021/04/28 01:15:18;;;;;;;33.78;24.67;;;10.80;99.90;;;;;;5056632;28;20028;-72
2021/04/28 01:17:45;;;;;;;34.42;25.00;;;10.80;99.90;;;;;;5056640;28;20415;-73
2021/04/28 01:20:13;;;;;;;34.00;23.52;;;10.80;99.90;;;;;;5074455;28;20024;-72
2021/04/28 01:22:41;;;;;;;36.92;24.35;;;10.80;99.90;;;;;;5074476;28;20028;-72
2021/04/28 01:25:09;;;;;;;29.95;20.40;;;10.80;99.90;;;;;;5074148;28;20036;-72
2021/04/28 01:27:38;;;;;;;28.77;19.55;;;10.90;99.90;;;;;;5056399;28;20123;-73
2021/04/28 01:30:06;;;;;;;25.38;19.85;;;10.90;99.90;;;;;;5056411;28;20035;-72
2021/04/28 01:32:34;;;;;;;28.40;19.63;;;10.90;99.90;;;;;;5056234;28;20025;-72
2021/04/28 01:35:00;;;;;;;31.92;21.48;;;10.90;99.90;;;;;;5056288;28;20354;-73
2021/04/28 01:37:27;;;;;;;25.90;19.67;;;10.90;99.90;;;;;;5074095;28;20028;-73
2021/04/28 01:39:54;;;;;;;24.88;19.55;;;10.90;99.90;;;;;;5074228;28;20047;-70
2021/04/28 01:42:20;;;;;;;27.83;19.15;;;10.90;99.90;;;;;;5074101;28;20404;-71
2021/04/28 01:44:48;;;;;;;27.23;18.90;;;10.90;99.90;;;;;;5056005;28;20404;-72
2021/04/28 01:47:17;;;;;;;30.05;20.30;;;10.90;99.90;;;;;;5073973;28;20488;-72
2021/04/28 01:49:44;;;;;;;30.00;19.95;;;11.00;99.90;;;;;;5074008;28;20111;-72
2021/04/28 01:52:10;;;;;;;27.98;19.88;;;10.90;99.90;;;;;;5073923;28;20082;-72
2021/04/28 01:54:37;;;;;;;28.05;19.60;;;11.00;99.90;;;;;;5055449;28;20032;-72
2021/04/28 01:57:03;;;;;;;23.83;17.92;;;10.90;99.90;;;;;;5073548;28;20480;-72
2021/04/28 01:59:30;;;;;;;25.27;19.45;;;11.00;99.90;;;;;;5074259;28;20055;-71
2021/04/28 02:01:57;;;;;;;28.63;19.75;;;10.90;99.90;;;;;;5055695;28;20032;-71
2021/04/28 02:04:23;;;;;;;28.08;19.98;;;10.90;99.90;;;;;;5073561;28;20028;-71
2021/04/28 02:06:50;;;;;;;28.50;20.08;;;10.90;99.90;;;;;;5055659;28;20120;-71
2021/04/28 02:09:16;;;;;;;28.73;20.17;;;10.90;99.90;;;;;;5055632;28;20035;-72
2021/04/28 02:11:42;;;;;;;25.95;19.70;;;10.90;99.90;;;;;;5073527;28;20040;-71
2021/04/28 02:14:13;;;;;;;28.23;19.42;;;10.90;99.90;;;;;;5073501;28;20021;-71
2021/04/28 02:16:40;;;;;;;27.80;19.50;;;10.90;99.90;;;;;;5073834;28;20025;-70
2021/04/28 02:19:08;;;;;;;26.60;19.95;;;10.90;99.90;;;;;;5055827;28;20493;-70
2021/04/28 02:21:57;;;;;;;24.40;18.90;;;10.90;99.90;;;;;;5073396;28;20495;-70
2021/04/28 02:24:23;;;;;;;28.42;19.05;;;10.90;99.90;;;;;;5054498;28;20484;-71
2021/04/28 02:26:56;;;;;;;33.08;20.80;;;10.90;99.90;;;;;;5072866;28;20072;-70
2021/04/28 02:29:22;;;;;;;29.13;21.25;;;10.90;99.90;;;;;;5073356;28;20032;-70
2021/04/28 02:31:48;;;;;;;29.80;20.70;;;10.80;99.90;;;;;;5055346;28;20376;-70
2021/04/28 02:34:14;;;;;;;28.88;20.85;;;10.80;99.90;;;;;;5073223;28;20376;-70
2021/04/28 02:36:47;;;;;;;29.65;20.17;;;10.80;99.90;;;;;;5055162;28;20035;-70
2021/04/28 02:39:25;;;;;;;30.63;20.15;;;10.80;99.90;;;;;;5055310;28;20168;-71
2021/04/28 02:41:52;;;;;;;27.20;20.70;;;10.80;99.90;;;;;;5073233;28;20034;-70
2021/04/28 02:44:19;;;;;;;30.35;19.80;;;10.80;99.90;;;;;;5055033;28;20045;-71
2021/04/28 02:46:47;;;;;;;30.77;20.95;;;10.80;99.90;;;;;;5054731;28;20031;-70
2021/04/28 02:49:15;;;;;;;24.55;19.02;;;10.80;99.90;;;;;;5073243;28;20036;-72
2021/04/28 02:51:41;;;;;;;28.73;18.75;;;10.80;99.90;;;;;;5055039;28;20024;-71
2021/04/28 02:54:08;;;;;;;25.92;17.88;;;10.80;99.90;;;;;;5055042;28;20036;-71
2021/04/28 02:56:35;;;;;;;26.25;18.17;;;10.90;99.90;;;;;;5073000;28;20093;-71
2021/04/28 02:59:02;;;;;;;28.02;18.33;;;10.90;99.90;;;;;;5073274;28;20028;-71
2021/04/28 03:01:29;;;;;;;26.45;18.63;;;10.90;99.90;;;;;;5054908;28;20536;-71
2021/04/28 03:03:55;;;;;;;30.92;19.17;;;10.90;99.90;;;;;;5054950;28;20033;-72
2021/04/28 03:06:22;;;;;;;30.13;19.90;;;10.90;99.90;;;;;;5074180;28;20054;-71
2021/04/28 03:08:48;;;;;;;26.42;20.17;;;10.80;99.90;;;;;;5059140;28;20020;-73
2021/04/28 03:11:16;;;;;;;24.92;19.15;;;10.80;99.90;;;;;;5076936;28;20381;-72
2021/04/28 03:13:42;;;;;;;24.92;18.75;;;10.80;99.90;;;;;;5058915;28;20111;-71
2021/04/28 03:16:09;;;;;;;27.75;19.00;;;10.80;99.90;;;;;;5076915;28;20067;-72
2021/04/28 03:18:39;;;;;;;28.02;19.20;;;10.80;99.90;;;;;;5058905;28;20025;-72
2021/04/28 03:21:09;;;;;;;28.10;20.27;;;10.80;99.90;;;;;;5076929;28;20372;-72
2021/04/28 03:23:35;;;;;;;29.08;19.70;;;10.80;99.90;;;;;;5058772;28;20059;-71
2021/04/28 03:26:01;;;;;;;27.45;18.73;;;10.80;99.90;;;;;;5046795;28;20643;-72
2021/04/28 03:28:28;;;;;;;28.73;20.02;;;10.70;99.90;;;;;;5036675;28;20028;-71
2021/04/28 03:30:54;;;;;;;25.60;19.90;;;10.70;99.90;;;;;;5036753;28;20108;-72
2021/04/28 03:33:19;;;;;;;25.73;18.50;;;10.80;99.90;;;;;;5036687;28;20068;-73
2021/04/28 03:35:45;;;;;;;27.45;19.73;;;10.80;99.90;;;;;;5036643;28;20033;-72
2021/04/28 03:38:11;;;;;;;26.77;19.67;;;10.80;99.90;;;;;;5036554;28;20052;-73
2021/04/28 03:40:38;;;;;;;28.58;20.05;;;10.80;99.90;;;;;;5035282;28;20029;-71
2021/04/28 03:43:04;;;;;;;27.83;20.00;;;10.80;99.90;;;;;;5036179;28;20029;-71
2021/04/28 03:45:31;;;;;;;28.58;21.98;;;10.80;99.90;;;;;;5034768;28;20029;-71
2021/04/28 03:47:57;;;;;;;28.17;19.95;;;10.80;99.90;;;;;;5036334;28;20038;-71
2021/04/28 03:50:23;;;;;;;28.48;20.05;;;10.90;99.90;;;;;;5036402;28;20127;-71
2021/04/28 03:52:49;;;;;;;28.02;19.40;;;10.90;99.90;;;;;;5036568;28;20037;-71
2021/04/28 03:55:15;;;;;;;24.27;18.38;;;10.90;99.90;;;;;;5036274;28;20418;-71
2021/04/28 03:57:41;;;;;;;27.80;17.80;;;10.90;99.90;;;;;;5036242;28;20068;-71
2021/04/28 04:00:08;;;;;;;27.10;18.73;;;11.00;99.90;;;;;;5036154;28;20063;-71
2021/04/28 04:02:34;;;;;;;30.10;17.42;;;11.00;99.90;;;;;;5027224;28;20068;-72
2021/04/28 04:05:00;;;;;;;25.33;18.80;;;11.00;99.90;;;;;;5036225;28;20389;-71
2021/04/28 04:07:27;;;;;;;25.23;17.05;;;11.00;99.90;;;;;;5034726;28;20033;-71
2021/04/28 04:09:53;;;;;;;27.60;17.60;;;11.00;99.90;;;;;;5036029;28;20033;-73
2021/04/28 04:12:19;;;;;;;23.85;17.65;;;11.00;99.90;;;;;;5035601;28;20018;-72
2021/04/28 04:14:44;;;;;;;24.33;17.20;;;11.00;99.90;;;;;;5034611;28;20033;-71
2021/04/28 04:17:11;;;;;;;25.13;17.65;;;11.00;99.90;;;;;;5035353;28;20367;-71
2021/04/28 04:19:37;;;;;;;26.40;17.45;;;11.00;99.90;;;;;;5036143;28;20068;-71
2021/04/28 04:22:03;;;;;;;26.50;17.98;;;11.10;99.90;;;;;;5035954;28;20061;-71
2021/04/28 04:24:28;;;;;;;24.45;17.48;;;11.10;99.90;;;;;;5035894;28;20036;-72
2021/04/28 04:26:54;;;;;;;25.45;16.83;;;11.10;99.90;;;;;;5034647;28;20068;-71
2021/04/28 04:29:21;;;;;;;27.13;18.55;;;11.10;99.90;;;;;;5035788;28;20029;-73
2021/04/28 04:31:47;;;;;;;26.88;18.58;;;11.10;99.90;;;;;;5035663;28;20026;-72
2021/04/28 04:34:12;;;;;;;23.92;18.25;;;11.20;99.90;;;;;;5035515;28;20071;-71
2021/04/28 04:36:38;;;;;;;27.60;17.83;;;11.20;99.90;;;;;;5035795;28;20035;-72
2021/04/28 04:39:05;;;;;;;27.63;18.20;;;11.20;99.90;;;;;;5035329;28;20033;-71
2021/04/28 04:41:32;;;;;;;32.92;17.58;;;11.20;99.90;;;;;;5034148;28;20466;-71
2021/04/28 04:43:58;;;;;;;28.25;19.08;;;11.20;99.90;;;;;;5035353;28;20451;-71
2021/04/28 04:46:24;;;;;;;28.35;18.88;;;11.20;99.90;;;;;;5035224;28;20052;-72
2021/04/28 04:48:50;;;;;;;29.08;18.55;;;11.30;99.90;;;;;;5035168;28;20095;-71
2021/04/28 04:51:16;;;;;;;25.05;17.55;;;11.30;99.90;;;;;;5035296;28;20099;-71
2021/04/28 04:53:42;;;;;;;31.02;18.42;;;11.30;99.90;;;;;;5030452;28;20474;-71
2021/04/28 04:56:08;;;;;;;27.58;18.10;;;11.40;99.90;;;;;;5035015;28;20399;-72
2021/04/28 04:58:34;;;;;;;26.67;18.95;;;11.40;99.90;;;;;;5035341;28;20049;-70
2021/04/28 05:01:00;;;;;;;29.52;19.58;;;11.40;99.90;;;;;;5035033;28;20099;-71
2021/04/28 05:03:26;;;;;;;31.67;23.35;;;11.40;99.90;;;;;;5034991;28;20446;-71
2021/04/28 05:05:51;;;;;;;32.00;23.95;;;11.40;99.90;;;;;;5033566;28;20438;-71
2021/04/28 05:08:18;;;;;;;36.70;24.10;;;11.30;99.90;;;;;;5034812;28;20458;-71
2021/04/28 05:10:43;;;;;;;31.58;22.00;;;11.40;99.90;;;;;;5034783;28;20156;-71
2021/04/28 05:13:10;;;;;;;39.47;23.00;;;11.40;99.90;;;;;;5034817;28;20116;-71
2021/04/28 05:15:36;;;;;;;30.35;20.25;;;11.40;99.90;;;;;;5033409;28;20029;-71
2021/04/28 05:18:02;;;;;;;44.78;32.33;;;11.40;99.90;;;;;;5034351;28;20036;-71
2021/04/28 05:20:28;;;;;;;31.83;24.27;;;11.50;99.90;;;;;;5033314;28;20167;-71
2021/04/28 05:22:54;;;;;;;33.70;23.67;;;11.50;99.90;;;;;;5020127;28;20101;-72
2021/04/28 05:25:20;;;;;;;34.22;20.27;;;11.50;99.90;;;;;;5026853;28;20900;-72
2021/04/28 05:27:46;;;;;;;25.85;19.75;;;11.60;99.90;;;;;;5036379;28;20025;-72
2021/04/28 05:30:12;;;;;;;28.20;20.63;;;11.70;99.90;;;;;;5053318;28;20036;-73
2021/04/28 05:32:41;;;;;;;28.05;19.77;;;11.60;99.90;;;;;;5054234;28;20373;-72
2021/04/28 05:35:11;;;;;;;34.67;21.38;;;11.70;99.90;;;;;;5055029;28;20043;-72
2021/04/28 05:37:38;;;;;;;31.48;22.95;;;11.70;99.90;;;;;;5036197;28;20086;-72
2021/04/28 05:40:06;;;;;;;27.70;19.80;;;11.80;99.90;;;;;;5053806;28;20029;-71
2021/04/28 05:42:32;;;;;;;27.42;20.65;;;11.80;99.90;;;;;;5036049;28;20025;-72
2021/04/28 05:44:58;;;;;;;30.70;22.08;;;11.80;99.90;;;;;;5035902;28;20386;-71
2021/04/28 05:47:24;;;;;;;32.30;20.63;;;11.80;99.90;;;;;;5053918;28;20094;-71
2021/04/28 05:49:50;;;;;;;27.20;19.67;;;11.90;99.90;;;;;;5053898;28;20025;-71
2021/04/28 05:52:17;;;;;;;25.67;18.63;;;12.00;99.90;;;;;;5053829;28;20094;-71
2021/04/28 05:54:42;;;;;;;23.23;18.70;;;12.10;99.90;;;;;;5053756;28;20064;-74
2021/04/28 05:57:09;;;;;;;25.52;19.38;;;12.10;99.90;;;;;;5053261;28;20048;-72
2021/04/28 05:59:35;;;;;;;28.70;19.38;;;12.20;99.90;;;;;;5035573;28;20028;-72
2021/04/28 06:02:01;;;;;;;35.40;20.15;;;12.20;99.90;;;;;;5035683;28;20032;-72
2021/04/28 06:04:27;;;;;;;29.70;21.13;;;12.30;99.90;;;;;;5053769;28;20029;-73
2021/04/28 06:06:53;;;;;;;29.25;20.20;;;12.30;99.90;;;;;;5053604;28;20398;-72
2021/04/28 06:09:19;;;;;;;33.17;20.80;;;12.30;99.90;;;;;;5035526;28;20115;-71
2021/04/28 06:11:45;;;;;;;30.85;21.65;;;12.30;99.90;;;;;;5035490;28;20032;-72
2021/04/28 06:14:12;;;;;;;26.10;20.30;;;12.20;99.90;;;;;;5053809;28;20461;-75
2021/04/28 06:16:38;;;;;;;29.27;21.30;;;12.20;99.90;;;;;;5035467;28;20028;-73
2021/04/28 06:19:04;;;;;;;37.40;21.80;;;12.20;99.90;;;;;;5053364;28;20049;-70
2021/04/28 06:21:29;;;;;;;33.72;22.08;;;12.20;99.90;;;;;;5053348;28;20043;-73
2021/04/28 06:23:55;;;;;;;36.67;23.70;;;12.10;99.90;;;;;;5053295;28;20495;-71
2021/04/28 06:26:21;;;;;;;33.22;23.77;;;12.10;99.90;;;;;;5034863;28;20547;-70
2021/04/28 06:28:47;;;;;;;37.88;24.65;;;12.10;99.90;;;;;;5035277;28;20385;-70
2021/04/28 06:31:13;;;;;;;39.78;24.98;;;12.10;99.90;;;;;;5052945;28;20036;-71
2021/04/28 06:33:42;;;;;;;44.22;25.75;;;12.10;99.90;;;;;;5035303;28;20021;-71
2021/04/28 06:36:09;;;;;;;44.50;26.02;;;12.10;99.90;;;;;;5035162;28;20025;-71
2021/04/28 06:38:36;;;;;;;48.53;26.05;;;12.10;99.90;;;;;;5053055;28;20025;-72
2021/04/28 06:41:03;;;;;;;41.72;26.40;;;12.20;99.90;;;;;;5052913;28;20024;-71
2021/04/28 06:43:29;;;;;;;42.88;26.23;;;12.20;99.90;;;;;;5052982;28;20021;-72
2021/04/28 06:45:54;;;;;;;50.13;29.27;;;12.10;99.90;;;;;;5052859;28;20035;-71
2021/04/28 06:48:20;;;;;;;50.47;28.20;;;12.10;99.90;;;;;;5034960;28;20120;-70
2021/04/28 06:50:46;;;;;;;54.90;28.88;;;12.20;99.90;;;;;;5034983;28;20143;-70
2021/04/28 06:53:12;;;;;;;53.88;26.98;;;12.20;99.90;;;;;;5052880;28;20025;-71
2021/04/28 06:55:38;;;;;;;52.20;28.33;;;12.30;99.90;;;;;;5052822;28;20033;-72
2021/04/28 06:58:04;;;;;;;49.70;26.98;;;12.30;99.90;;;;;;5052871;28;20420;-72
2021/04/28 07:00:30;;;;;;;44.35;27.92;;;12.40;99.90;;;;;;5034892;28;20033;-70
2021/04/28 07:02:57;;;;;;;45.53;28.25;;;12.60;99.90;;;;;;5034867;28;20024;-71
2021/04/28 07:05:27;;;;;;;46.22;27.58;;;12.70;99.90;;;;;;5052426;28;20032;-72
2021/04/28 07:07:53;;;;;;;52.25;31.55;;;12.80;99.90;;;;;;5052761;28;20032;-70
2021/04/28 07:10:19;;;;;;;56.80;33.90;;;12.60;99.90;;;;;;5052653;28;20032;-71
2021/04/28 07:12:45;;;;;;;60.97;34.30;;;12.70;99.90;;;;;;5034774;28;20151;-73
2021/04/28 07:15:12;;;;;;;57.20;33.42;;;12.70;99.90;;;;;;5057612;28;20470;-69
2021/04/28 07:17:38;;;;;;;54.78;33.83;;;12.70;99.90;;;;;;5058381;28;20029;-72
2021/04/28 07:20:06;;;;;;;60.63;32.25;;;12.70;99.90;;;;;;5053583;28;20032;-71
2021/04/28 07:22:32;;;;;;;51.58;31.40;;;;;;;;;;5072733;28;20048;-70
2021/04/28 07:24:58;;;;;;;49.67;31.80;;;12.90;99.90;;;;;;5072454;28;20116;-68
2021/04/28 07:27:24;;;;;;;52.47;31.70;;;13.00;99.90;;;;;;5071760;28;20132;-72
2021/04/28 07:29:50;;;;;;;50.30;32.17;;;13.00;99.90;;;;;;5072608;28;20025;-70
2021/04/28 07:32:16;;;;;;;46.15;31.52;;;13.10;99.90;;;;;;5072499;28;20032;-71
2021/04/28 07:34:42;;;;;;;50.58;28.98;;;13.40;99.90;;;;;;5054436;28;20028;-70
2021/04/28 07:37:08;;;;;;;45.60;29.20;;;13.60;99.90;;;;;;5072138;28;20028;-70
2021/04/28 07:39:35;;;;;;;37.47;27.23;;;13.80;99.90;;;;;;5072322;28;20504;-70
2021/04/28 07:42:01;;;;;;;44.63;28.65;;;14.00;99.90;;;;;;5072574;28;20021;-71
2021/04/28 07:44:30;;;;;;;47.92;30.80;;;14.10;99.70;;;;;;5072002;28;20104;-71
2021/04/28 07:46:57;;;;;;;47.33;30.30;;;14.30;99.80;;;;;;5054205;28;20082;-71
2021/04/28 07:49:23;;;;;;;54.25;30.85;;;14.50;99.00;;;;;;5072385;28;20020;-70
2021/04/28 07:51:48;;;;;;;45.80;30.20;;;14.60;99.90;;;;;;5072748;28;20541;-69
2021/04/28 07:54:14;;;;;;;45.75;29.88;;;14.70;98.80;;;;;;5058139;28;20606;-70
2021/04/28 07:56:40;;;;;;;41.95;29.08;;;14.80;99.30;;;;;;5057249;28;20029;-72
2021/04/28 07:59:06;;;;;;;49.33;30.42;;;14.90;98.80;;;;;;5075347;28;20552;-70
2021/04/28 08:01:32;;;;;;;46.17;29.38;;;14.90;99.20;;;;;;5056783;28;20469;-72
2021/04/28 08:03:59;;;;;;;45.25;27.45;;;14.90;99.00;;;;;;5073534;28;20043;-71
2021/04/28 08:06:25;;;;;;;54.67;30.90;;;15.00;98.10;;;;;;5055657;28;20025;-72
2021/04/28 08:08:51;;;;;;;57.85;33.58;;;15.00;98.90;;;;;;5073998;28;20422;-70
2021/04/28 08:11:18;;;;;;;51.97;31.67;;;15.00;98.30;;;;;;5073996;28;20237;-71
2021/04/28 08:13:46;;;;;;;57.83;32.53;;;14.80;97.60;;;;;;5073692;28;20465;-71
2021/04/28 08:16:13;;;;;;;63.17;36.95;;;14.90;98.30;;;;;;5074382;28;20111;-71
2021/04/28 08:18:39;;;;;;;52.38;32.45;;;14.90;98.90;;;;;;5075346;28;20393;-71
2021/04/28 08:21:05;;;;;;;64.70;34.97;;;15.00;98.30;;;;;;5075792;28;20033;-72
2021/04/28 08:23:31;;;;;;;61.55;32.10;;;14.80;99.00;;;;;;5075568;28;20031;-71
2021/04/28 08:26:01;;;;;;;52.97;32.13;;;14.90;99.10;;;;;;5075357;28;20447;-72
2021/04/28 08:28:28;;;;;;;59.88;36.58;;;14.90;99.10;;;;;;5075794;28;20111;-74
2021/04/28 08:30:54;;;;;;;57.38;33.97;;;14.70;99.60;;;;;;5057429;28;20035;-72
2021/04/28 08:33:19;;;;;;;58.25;34.55;;;14.70;98.40;;;;;;5075414;28;20028;-70
2021/04/28 08:35:45;;;;;;;64.32;33.67;;;14.50;98.90;;;;;;5075352;28;20484;-71
2021/04/28 08:38:12;;;;;;;59.47;33.60;;;14.50;99.60;;;;;;5057358;28;20024;-72
2021/04/28 08:40:38;;;;;;;60.00;34.45;;;14.40;99.90;;;;;;5067398;28;20142;-72
2021/04/28 08:43:05;;;;;;;53.83;31.88;;;14.30;99.90;;;;;;5056422;28;20383;-73
2021/04/28 08:45:32;;;;;;;51.72;33.20;;;14.30;99.90;;;;;;5074447;28;20029;-72
2021/04/28 08:47:58;;;;;;;48.08;33.72;;;14.30;99.90;;;;;;5074553;28;20020;-72
2021/04/28 08:50:24;;;;;;;49.13;32.38;;;14.30;99.90;;;;;;5074484;28;20043;-70
2021/04/28 08:52:55;;;;;;;57.92;33.28;;;14.30;99.90;;;;;;5056984;28;20021;-72
2021/04/28 08:55:21;;;;;;;54.97;34.72;;;14.30;99.90;;;;;;5056731;28;20043;-71
2021/04/28 08:57:47;;;;;;;59.40;35.92;;;14.20;99.90;;;;;;5056708;28;20056;-72
2021/04/28 09:00:14;;;;;;;58.42;37.28;;;14.10;99.90;;;;;;5074802;28;20031;-71
2021/04/28 09:03:01;;;;;;;62.20;39.65;;;14.10;99.90;;;;;;5056300;28;20024;-72
2021/04/28 09:05:31;;;;;;;61.92;39.95;;;14.10;99.90;;;;;;5055831;28;20039;-73
2021/04/28 09:07:57;;;;;;;69.10;41.03;;;14.10;99.90;;;;;;5074546;28;20032;-70
2021/04/28 09:10:30;;;;;;;68.28;39.78;;;14.20;99.90;;;;;;5073365;28;20063;-71
2021/04/28 09:13:17;;;;;;;64.75;38.17;;;14.20;99.90;;;;;;5074290;28;20461;-72
2021/04/28 09:15:46;;;;;;;57.38;35.17;;;14.20;99.90;;;;;;5055273;28;20063;-73
2021/04/28 09:18:15;;;;;;;55.55;36.35;;;14.30;99.90;;;;;;5074433;28;20086;-72
2021/04/28 09:20:48;;;;;;;65.85;38.47;;;14.30;99.90;;;;;;5074575;28;20115;-73
2021/04/28 09:23:16;;;;;;;64.30;40.75;;;14.20;99.90;;;;;;5074534;28;20046;-73
2021/04/28 09:25:51;;;;;;;66.80;42.63;;;14.20;99.90;;;;;;5046934;28;20594;-72
2021/04/28 09:28:20;;;;;;;63.85;40.22;;;14.20;99.90;;;;;;5033058;28;20040;-72
2021/04/28 09:30:45;;;;;;;67.40;40.00;;;14.20;99.90;;;;;;5034137;28;20367;-72
2021/04/28 09:33:12;;;;;;;65.80;40.70;;;14.10;99.90;;;;;;5034728;28;20036;-73
2021/04/28 09:35:38;;;;;;;70.88;45.35;;;14.20;99.90;;;;;;5034306;28;20052;-73
2021/04/28 09:38:04;;;;;;;67.80;40.50;;;14.30;99.90;;;;;;5032883;28;20079;-73
2021/04/28 09:40:57;;;;;;;67.13;42.08;;;14.40;99.90;;;;;;5032548;28;20487;-73
2021/04/28 09:43:36;;;;;;;62.10;37.15;;;14.30;99.90;;;;;;5034221;28;20544;-73
2021/04/28 09:46:02;;;;;;;57.95;38.03;;;14.40;99.90;;;;;;5031408;28;20037;-72
2021/04/28 09:48:28;;;;;;;78.03;45.17;;;14.40;99.90;;;;;;5031942;28;20091;-71
2021/04/28 09:51:08;;;;;;;59.95;39.03;;;14.40;99.90;;;;;;5032470;28;20025;-74
2021/04/28 09:53:34;;;;;;;59.90;36.47;;;14.50;99.90;;;;;;5025079;28;20122;-73
2021/04/28 09:56:00;;;;;;;74.45;44.60;;;14.60;99.90;;;;;;5033996;28;20037;-72
2021/04/28 09:58:52;;;;;;;67.63;40.22;;;14.60;99.90;;;;;;5033660;28;20462;-73
2021/04/28 10:01:31;;;;;;;59.00;38.08;;;14.70;99.90;;;;;;5033840;28;20032;-74
2021/04/28 10:03:57;;;;;;;71.80;43.38;;;14.80;99.90;;;;;;5032199;28;20125;-72
2021/04/28 10:06:47;;;;;;;74.75;41.92;;;14.90;99.90;;;;;;5033284;28;20037;-70
2021/04/28 10:09:36;;;;;;;67.45;40.22;;;15.00;99.90;;;;;;5033625;28;20037;-72
2021/04/28 10:12:06;;;;;;;71.50;42.28;;;;;;;;;;5033716;28;20022;-71
2021/04/28 10:14:34;;;;;;;68.32;41.20;;;15.50;99.90;;;;;;5033356;28;20045;-73
2021/04/28 10:17:03;;;;;;;65.57;40.08;;;;;;;;;;5032223;28;20026;-73
2021/04/28 10:19:30;;;;;;;52.40;31.92;;;15.80;99.90;;;;;;5033444;28;20024;-76
2021/04/28 10:22:06;;;;;;;54.80;33.58;;;16.00;99.90;;;;;;5032356;28;20021;-71
2021/04/28 10:24:32;;;;;;;49.00;32.90;;;16.30;99.90;;;;;;5032923;28;20052;-71
2021/04/28 10:26:59;;;;;;;53.90;35.35;;;16.50;99.90;;;;;;5031416;28;20049;-71
2021/04/28 10:29:26;;;;;;;52.35;34.95;;;16.60;99.90;;;;;;5033470;28;20445;-73
2021/04/28 10:31:54;;;;;;;56.63;38.75;;;16.60;99.20;;;;;;5033358;28;20108;-71
2021/04/28 10:34:50;;;;;;;52.55;34.60;;;16.60;99.70;;;;;;5031878;28;20021;-73
2021/04/28 10:37:19;;;;;;;81.03;47.10;;;16.60;99.90;;;;;;5030802;28;20037;-71
2021/04/28 10:39:49;;;;;;;59.75;42.83;;;16.50;99.90;;;;;;5032886;28;20026;-71
2021/04/28 10:42:24;;;;;;;68.72;43.78;;;16.40;99.90;;;;;;5029934;28;20071;-72
2021/04/28 10:44:50;;;;;;;68.55;43.78;;;16.40;99.90;;;;;;5031676;28;20386;-76
2021/04/28 10:47:25;;;;;;;71.20;49.22;;;16.30;99.90;;;;;;5030628;28;20068;-74
2021/04/28 10:50:11;;;;;;;66.63;46.33;;;16.20;99.90;;;;;;5031761;28;20044;-71
2021/04/28 10:53:01;;;;;;;74.38;50.78;;;16.20;99.90;;;;;;5031470;28;20034;-72
2021/04/28 10:55:55;;;;;;;68.43;47.13;;;16.40;99.90;;;;;;5033180;28;20370;-72
2021/04/28 10:58:30;;;;;;;78.00;48.50;;;16.70;99.60;;;;;;5033213;28;20033;-73
2021/04/28 11:01:02;;;;;;;71.15;48.08;;;16.90;99.90;;;;;;5032966;28;20074;-72
2021/04/28 11:03:32;;;;;;;77.32;53.25;;;17.00;99.90;;;;;;5031638;28;20542;-72
2021/04/28 11:06:20;;;;;;;81.10;52.40;;;16.80;99.90;;;;;;5032667;28;20101;-70
2021/04/28 11:09:10;;;;;;;80.97;53.15;;;16.70;99.90;;;;;;5031323;28;20411;-71
2021/04/28 11:11:41;;;;;;;69.80;49.40;;;16.60;99.90;;;;;;5032730;28;20482;-73
2021/04/28 11:14:10;;;;;;;;;;;16.60;99.90;;;;;;5033349;28;20029;-72
2021/04/28 11:16:42;;;;;;;75.07;50.25;;;16.60;99.90;;;;;;5031400;28;19912;-71
2021/04/28 11:19:17;;;;;;;83.68;52.28;;;16.60;99.90;;;;;;5032429;28;20101;-71
2021/04/28 11:22:07;;;;;;;77.50;52.60;;;16.60;99.90;;;;;;5032630;28;20064;-71
2021/04/28 11:24:53;;;;;;;91.55;58.05;;;16.70;99.90;;;;;;5018482;28;20482;-71
2021/04/28 11:27:41;;;;;;;83.57;55.17;;;16.80;99.90;;;;;;5070375;28;20130;-71
2021/04/28 11:30:24;;;;;;;78.75;54.15;;;16.90;99.90;;;;;;5076297;28;20025;-73
2021/04/28 11:33:11;;;;;;;85.25;56.67;;;16.90;99.90;;;;;;5076331;28;20488;-72
2021/04/28 11:35:58;;;;;;;81.47;56.60;;;17.10;99.90;;;;;;5076249;28;20383;-71
2021/04/28 11:38:26;;;;;;;79.25;53.38;;;17.40;99.90;;;;;;5041676;28;20091;-72
2021/04/28 11:41:00;;;;;;;80.85;55.72;;;17.60;99.90;;;;;;5038475;28;20416;-71
2021/04/28 11:43:28;;;;;;;90.70;56.58;;;17.70;99.90;;;;;;5056323;28;20115;-72
2021/04/28 11:46:08;;;;;;;82.93;54.17;;;17.90;99.60;;;;;;5055511;28;20432;-71
2021/04/28 11:48:36;;;;;;;72.57;50.08;;;18.10;99.20;;;;;;5056283;28;20396;-73
2021/04/28 11:51:13;;;;;;;74.45;53.42;;;18.20;97.70;;;;;;5056203;28;20067;-74
2021/04/28 11:53:48;;;;;;;83.72;56.25;;;18.10;98.50;;;;;;5056169;28;20039;-72
2021/04/28 11:56:33;;;;;;;85.93;58.92;;;17.90;99.30;;;;;;5056112;28;20035;-72
2021/04/28 11:59:00;;;;;;;83.13;56.17;;;17.90;99.90;;;;;;5038242;28;20040;-72
2021/04/28 12:01:31;;;;;;;99.10;66.03;;;17.90;99.90;;;;;;5055893;28;20017;-72
2021/04/28 12:04:06;;;;;;;81.32;58.63;;;18.00;99.90;;;;;;5055950;28;20021;-72
2021/04/28 12:06:43;;;;;;;88.93;60.88;;;18.00;99.90;;;;;;5055838;28;20037;-72
2021/04/28 12:09:26;;;;;;;85.50;58.78;;;17.90;99.90;;;;;;5037240;28;20040;-72
2021/04/28 12:12:21;;;;;;;82.45;55.97;;;17.90;99.90;;;;;;5055237;28;20098;-73
2021/04/28 12:14:49;;;;;;;85.60;60.70;;;17.80;99.90;;;;;;5055275;28;20029;-71
2021/04/28 12:17:36;;;;;;;86.28;58.13;;;17.60;99.90;;;;;;5055781;28;20032;-71
2021/04/28 12:20:07;;;;;;;84.63;53.85;;;17.30;99.90;;;;;;5056103;28;20025;-71
2021/04/28 12:22:33;;;;;;;84.72;54.65;;;17.20;99.90;;;;;;5037746;28;20025;-71
2021/04/28 12:25:03;;;;;;;83.30;54.35;;;17.00;99.90;;;;;;5055320;28;20409;-71
2021/04/28 12:27:31;;;;;;;77.05;54.05;;;16.90;99.90;;;;;;5037603;28;20381;-71
2021/04/28 12:29:59;;;;;;;84.88;53.83;;;16.90;99.90;;;;;;5037402;28;20025;-71
2021/04/28 12:32:33;;;;;;;80.90;55.65;;;16.90;99.90;;;;;;5055492;28;20029;-70
2021/04/28 12:35:11;;;;;;;79.32;51.90;;;16.90;99.90;;;;;;5055451;28;20036;-71
2021/04/28 12:37:38;;;;;;;91.65;58.33;;;17.00;99.90;;;;;;5037243;28;20112;-71